createdAt,value
2019-06-08T00:01:18.491Z,99601.64
2019-06-08T00:03:51.542Z,99580.88
2019-06-08T00:06:24.309Z,99603.77
2019-06-08T00:08:57.446Z,99656.77
2019-06-08T00:11:30.679Z,99596.97
2019-06-08T00:14:02.953Z,99600.92
2019-06-08T00:16:35.146Z,99601.47
2019-06-08T00:19:08.306Z,99598.77
2019-06-08T00:21:40.511Z,99619.94
2019-06-08T00:24:15.780Z,99610.11
2019-06-08T00:26:48.769Z,99627.81
2019-06-08T00:29:22.443Z,99603.34
2019-06-08T00:31:56.311Z,99615.30
2019-06-08T00:34:28.551Z,99612.23
2019-06-08T00:37:01.684Z,99614.64
2019-06-08T00:39:33.848Z,99614.76
2019-06-08T00:42:06.113Z,99611.18
2019-06-08T00:44:38.327Z,99603.32
2019-06-08T00:47:10.656Z,99615.55
2019-06-08T00:49:42.933Z,99616.64
2019-06-08T00:52:16.909Z,99601.05
2019-06-08T00:54:49.250Z,99616.20
2019-06-08T00:57:22.169Z,99622.56
2019-06-08T00:59:54.393Z,99619.86
2019-06-08T01:02:28.585Z,99616.92
2019-06-08T01:05:03.004Z,99633.94
2019-06-08T01:07:35.172Z,99630.60
2019-06-08T01:10:09.361Z,99627.47
2019-06-08T01:12:41.547Z,99658.13
2019-06-08T01:15:16.397Z,99640.88
2019-06-08T01:18:01.611Z,99651.29
2019-06-08T01:20:35.929Z,99666.89
2019-06-08T01:23:08.194Z,99656.53
2019-06-08T01:25:40.493Z,99666.32
2019-06-08T01:28:12.688Z,99662.92
2019-06-08T01:30:44.973Z,99654.84
2019-06-08T01:33:17.180Z,99661.49
2019-06-08T01:35:49.695Z,99666.51
2019-06-08T01:38:22.915Z,99665.65
2019-06-08T01:40:55.367Z,99677.17
2019-06-08T01:43:27.785Z,99672.55
2019-06-08T01:46:01.186Z,99674.03
2019-06-08T01:48:33.331Z,99684.70
2019-06-08T01:51:05.613Z,99678.79
2019-06-08T01:53:37.831Z,99671.84
2019-06-08T01:56:10.119Z,99678.74
2019-06-08T01:58:42.278Z,99685.59
2019-06-08T02:01:14.634Z,99685.23
2019-06-08T02:03:46.811Z,99677.98
2019-06-08T02:06:19.086Z,99684.12
2019-06-08T02:08:51.246Z,99693.05
2019-06-08T02:11:24.513Z,99681.80
2019-06-08T02:13:56.812Z,99698.62
2019-06-08T02:16:29.728Z,99683.41
2019-06-08T02:19:02.114Z,99683.09
2019-06-08T02:21:35.338Z,99693.94
2019-06-08T02:24:07.584Z,99675.98
2019-06-08T02:26:40.399Z,99685.66
2019-06-08T02:29:12.676Z,99693.22
2019-06-08T02:31:48.032Z,99676.20
2019-06-08T02:34:21.553Z,99695.34
2019-06-08T02:36:53.701Z,99688.87
2019-06-08T02:39:28.526Z,99685.45
2019-06-08T02:42:01.870Z,99692.62
2019-06-08T02:44:36.284Z,99687.86
2019-06-08T02:47:09.598Z,99706.48
2019-06-08T02:49:41.850Z,99709.14
2019-06-08T02:52:15.292Z,99701.63
2019-06-08T02:54:47.600Z,99702.05
2019-06-08T02:57:21.601Z,99717.94
2019-06-08T02:59:54.845Z,99713.14
2019-06-08T03:02:31.626Z,99722.56
2019-06-08T03:05:05.168Z,99719.34
2019-06-08T03:07:39.012Z,99736.80
2019-06-08T03:10:14.702Z,99718.47
2019-06-08T03:12:47.568Z,99737.27
2019-06-08T03:15:32.419Z,99760.06
2019-06-08T03:18:06.832Z,99749.83
2019-06-08T03:20:40.118Z,99754.00
2019-06-08T03:23:14.572Z,99754.06
2019-06-08T03:25:53.187Z,99755.42
2019-06-08T03:28:25.870Z,99794.95
2019-06-08T03:30:58.193Z,99770.27
2019-06-08T03:33:30.367Z,99795.41
2019-06-08T03:36:03.118Z,99778.59
2019-06-08T03:38:35.796Z,99789.42
2019-06-08T03:41:08.229Z,99788.88
2019-06-08T03:43:42.411Z,99780.64
2019-06-08T03:46:14.784Z,99775.58
2019-06-08T03:48:47.921Z,99783.97
2019-06-08T03:51:20.163Z,99784.32
2019-06-08T03:53:52.413Z,99790.67
2019-06-08T03:56:25.439Z,99784.57
2019-06-08T03:58:57.910Z,99807.63
2019-06-08T04:01:31.805Z,99804.59
2019-06-08T04:04:04.042Z,99819.14
2019-06-08T04:06:37.659Z,99814.13
2019-06-08T04:09:10.221Z,99816.47
2019-06-08T04:11:44.303Z,99817.81
2019-06-08T04:14:17.292Z,99814.18
2019-06-08T04:16:50.261Z,99809.66
2019-06-08T04:19:23.664Z,99814.55
2019-06-08T04:21:55.992Z,99816.12
2019-06-08T04:24:28.869Z,99813.98
2019-06-08T04:27:01.864Z,99823.81
2019-06-08T04:29:34.072Z,99817.56
2019-06-08T04:32:06.349Z,99816.16
2019-06-08T04:34:40.868Z,99840.77
2019-06-08T04:37:15.967Z,99818.95
2019-06-08T04:39:48.272Z,99822.07
2019-06-08T04:42:21.166Z,99827.09
2019-06-08T04:44:53.369Z,99842.23
2019-06-08T04:47:27.005Z,99852.66
2019-06-08T04:49:59.177Z,99848.29
2019-06-08T04:52:35.252Z,99853.31
2019-06-08T04:55:14.673Z,99854.19
2019-06-08T04:57:52.972Z,99859.18
2019-06-08T05:00:25.897Z,99859.13
2019-06-08T05:02:59.540Z,99875.41
2019-06-08T05:05:32.607Z,99863.28
2019-06-08T05:08:08.764Z,99864.48
2019-06-08T05:10:41.234Z,99865.72
2019-06-08T05:13:13.763Z,99869.58
2019-06-08T05:15:47.242Z,99877.81
2019-06-08T05:18:19.829Z,99888.55
2019-06-08T05:20:52.985Z,99899.09
2019-06-08T05:23:25.277Z,99874.38
2019-06-08T05:25:57.466Z,99872.83
2019-06-08T05:28:30.354Z,99882.57
2019-06-08T05:31:02.573Z,99896.54
2019-06-08T05:33:34.822Z,99891.66
2019-06-08T05:36:07.035Z,99894.42
2019-06-08T05:38:39.508Z,99891.98
2019-06-08T05:41:11.751Z,99892.17
2019-06-08T05:43:43.999Z,99895.35
2019-06-08T05:46:16.320Z,99902.91
2019-06-08T05:48:50.526Z,99913.08
2019-06-08T05:51:23.512Z,99908.55
2019-06-08T05:53:55.800Z,99909.78
2019-06-08T05:56:29.009Z,99902.52
2019-06-08T05:59:01.304Z,99913.06
2019-06-08T06:01:34.061Z,99907.30
2019-06-08T06:04:06.302Z,99921.65
2019-06-08T06:06:38.812Z,99927.55
2019-06-08T06:09:14.115Z,99931.70
2019-06-08T06:11:48.914Z,99929.12
2019-06-08T06:14:21.258Z,99936.04
2019-06-08T06:16:53.574Z,99943.36
2019-06-08T06:19:25.820Z,99955.95
2019-06-08T06:22:03.105Z,99984.82
2019-06-08T06:24:37.175Z,99952.33
2019-06-08T06:27:09.769Z,99966.27
2019-06-08T06:29:43.495Z,99952.70
2019-06-08T06:32:16.587Z,99970.78
2019-06-08T06:34:49.912Z,99965.07
2019-06-08T06:37:22.152Z,99973.80
2019-06-08T06:39:55.402Z,99975.20
2019-06-08T06:42:27.647Z,99983.66
2019-06-08T06:45:00.944Z,100013.20
2019-06-08T06:47:35.203Z,99995.13
2019-06-08T06:50:08.264Z,99994.48
2019-06-08T06:52:40.555Z,99994.99
2019-06-08T06:55:15.441Z,99990.98
2019-06-08T06:57:49.327Z,100007.11
2019-06-08T07:00:32.449Z,100017.83
2019-06-08T07:03:04.687Z,100016.84
2019-06-08T07:05:38.562Z,100030.47
2019-06-08T07:08:10.803Z,100033.52
2019-06-08T07:10:44.613Z,100039.81
2019-06-08T07:13:17.809Z,100066.37
2019-06-08T07:15:58.439Z,100075.38
2019-06-08T07:18:32.257Z,100047.02
2019-06-08T07:21:06.514Z,100049.84
2019-06-08T07:23:40.570Z,100020.41
2019-06-08T07:26:12.838Z,100059.38
2019-06-08T07:28:48.142Z,100049.61
2019-06-08T07:31:21.619Z,100062.70
2019-06-08T07:33:55.768Z,100062.70
2019-06-08T07:36:28.071Z,100060.52
2019-06-08T07:39:01.116Z,100061.71
2019-06-08T07:41:33.787Z,100067.83
2019-06-08T07:44:07.299Z,100062.15
2019-06-08T07:46:40.077Z,100064.13
2019-06-08T07:49:13.917Z,100063.20
2019-06-08T07:51:58.912Z,100071.91
2019-06-08T07:54:44.523Z,100061.80
2019-06-08T07:57:19.414Z,100081.89
2019-06-08T07:59:53.208Z,100084.86
2019-06-08T08:02:27.048Z,100081.52
2019-06-08T08:05:02.419Z,100077.95
2019-06-08T08:07:35.261Z,100081.34
2019-06-08T08:10:08.663Z,100087.92
2019-06-08T08:12:45.587Z,100098.84
2019-06-08T08:15:17.172Z,100092.99
2019-06-08T08:17:51.922Z,100140.12
2019-06-08T08:20:25.748Z,100102.08
2019-06-08T08:23:06.043Z,100091.86
2019-06-08T08:25:43.113Z,100104.88
2019-06-08T08:28:17.554Z,100102.45
2019-06-08T08:30:53.749Z,100109.52
2019-06-08T08:33:27.651Z,100096.60
2019-06-08T08:36:01.848Z,100130.12
2019-06-08T08:38:34.384Z,100091.89
2019-06-08T08:41:10.817Z,100117.92
2019-06-08T08:43:43.311Z,100125.08
2019-06-08T08:46:17.297Z,100135.94
2019-06-08T08:48:50.901Z,100123.22
2019-06-08T08:51:27.950Z,100117.06
2019-06-08T08:54:04.766Z,100123.16
2019-06-08T08:56:38.404Z,100133.41
2019-06-08T08:59:12.894Z,100131.38
2019-06-08T09:01:48.131Z,100171.87
2019-06-08T09:04:20.700Z,100153.13
2019-06-08T09:06:55.539Z,100147.70
2019-06-08T09:09:31.815Z,100139.13
2019-06-08T09:12:04.895Z,100123.20
2019-06-08T09:14:41.830Z,100135.84
2019-06-08T09:17:18.071Z,100138.56
2019-06-08T09:19:52.528Z,100143.59
2019-06-08T09:22:32.086Z,100185.92
2019-06-08T09:25:08.654Z,100188.05
2019-06-08T09:27:41.173Z,100150.63
2019-06-08T09:30:18.047Z,100158.33
2019-06-08T09:32:54.342Z,100178.31
2019-06-08T09:35:28.854Z,100170.72
2019-06-08T09:38:04.882Z,100164.96
2019-06-08T09:40:38.616Z,100172.02
2019-06-08T09:43:13.177Z,100196.45
2019-06-08T09:45:48.303Z,100174.80
2019-06-08T09:48:20.924Z,100203.27
2019-06-08T09:50:53.151Z,100184.86
2019-06-08T09:53:37.093Z,100198.12
2019-06-08T09:56:13.084Z,100204.52
2019-06-08T09:58:45.430Z,100207.14
2019-06-08T10:01:18.742Z,100216.72
2019-06-08T10:03:52.358Z,100208.88
2019-06-08T10:06:25.863Z,100209.70
2019-06-08T10:08:58.543Z,100215.93
2019-06-08T10:11:31.108Z,100228.59
2019-06-08T10:14:08.539Z,100223.59
2019-06-08T10:17:02.665Z,100224.92
2019-06-08T10:19:41.577Z,100226.75
2019-06-08T10:22:19.997Z,100231.77
2019-06-08T10:24:55.472Z,100250.20
2019-06-08T10:27:32.749Z,100237.58
2019-06-08T10:30:09.999Z,100256.77
2019-06-08T10:32:50.386Z,100243.81
2019-06-08T10:35:24.540Z,100289.97
2019-06-08T10:38:01.483Z,100261.25
2019-06-08T10:41:06.530Z,100281.52
2019-06-08T10:43:44.989Z,100248.38
2019-06-08T10:46:20.753Z,100252.96
2019-06-08T10:48:55.247Z,100254.45
2019-06-08T10:51:27.558Z,100247.12
2019-06-08T10:53:59.996Z,100256.65
2019-06-08T10:56:32.457Z,100260.35
2019-06-08T10:59:07.208Z,100281.74
2019-06-08T11:01:42.297Z,100276.52
2019-06-08T11:04:18.621Z,100283.58
2019-06-08T11:06:54.010Z,100262.05
2019-06-08T11:09:28.515Z,100276.77
2019-06-08T11:12:03.898Z,100257.13
2019-06-08T11:14:38.270Z,100268.17
2019-06-08T11:17:13.103Z,100274.87
2019-06-08T11:19:47.882Z,100281.16
2019-06-08T11:22:20.398Z,100286.10
2019-06-08T11:24:52.659Z,100282.05
2019-06-08T11:27:24.955Z,100298.17
2019-06-08T11:29:57.814Z,100291.22
2019-06-08T11:32:31.468Z,100284.94
2019-06-08T11:35:05.790Z,100304.97
2019-06-08T11:37:40.908Z,100280.95
2019-06-08T11:40:14.004Z,100300.86
2019-06-08T11:42:48.516Z,100301.63
2019-06-08T11:45:22.304Z,100338.61
2019-06-08T11:47:58.321Z,100314.76
2019-06-08T11:50:49.036Z,100317.03
2019-06-08T11:53:24.355Z,100302.50
2019-06-08T11:55:58.608Z,100306.95
2019-06-08T11:58:32.782Z,100333.51
2019-06-08T12:01:11.621Z,100319.27
2019-06-08T12:03:48.399Z,100320.84
2019-06-08T12:06:23.556Z,100321.12
2019-06-08T12:09:00.128Z,100325.56
2019-06-08T12:11:33.679Z,100325.94
2019-06-08T12:14:09.243Z,100343.38
2019-06-08T12:16:48.526Z,100350.16
2019-06-08T12:19:22.014Z,100329.25
2019-06-08T12:21:54.393Z,100341.17
2019-06-08T12:24:40.978Z,100335.28
2019-06-08T12:27:29.545Z,100345.86
2019-06-08T12:30:15.928Z,100358.25
2019-06-08T12:32:50.355Z,100334.56
2019-06-08T12:35:22.628Z,100365.19
2019-06-08T12:37:54.948Z,100364.48
2019-06-08T12:40:29.400Z,100364.50
2019-06-08T12:43:01.770Z,100356.47
2019-06-08T12:45:38.073Z,100399.34
2019-06-08T12:51:24.222Z,100356.55
2019-06-08T12:54:00.318Z,100366.34
2019-06-08T12:56:32.893Z,100378.16
2019-06-08T12:59:07.987Z,100367.72
2019-06-08T13:01:44.552Z,100363.98
2019-06-08T13:04:21.364Z,100364.26
2019-06-08T13:06:54.385Z,100355.58
2019-06-08T13:09:29.701Z,100362.12
2019-06-08T13:12:03.416Z,100358.31
2019-06-08T13:14:35.749Z,100368.33
2019-06-08T13:17:10.370Z,100341.83
2019-06-08T13:19:44.683Z,100357.25
2019-06-08T13:22:19.362Z,100343.70
2019-06-08T13:24:56.312Z,100363.37
2019-06-08T13:27:30.434Z,100349.17
2019-06-08T13:30:07.507Z,100356.91
2019-06-08T13:32:40.751Z,100375.77
2019-06-08T13:35:19.104Z,100347.36
2019-06-08T13:37:52.972Z,100357.44
2019-06-08T13:40:25.350Z,100366.91
2019-06-08T13:42:58.756Z,100369.95
2019-06-08T13:45:31.090Z,100409.56
2019-06-08T13:48:04.444Z,100380.92
2019-06-08T13:50:36.690Z,100381.80
2019-06-08T13:53:10.869Z,100360.56
2019-06-08T13:55:53.275Z,100365.80
2019-06-08T13:58:33.199Z,100377.45
2019-06-08T14:01:11.236Z,100361.36
2019-06-08T14:03:44.244Z,100367.42
2019-06-08T14:06:18.575Z,100375.69
2019-06-08T14:08:52.278Z,100370.70
2019-06-08T14:11:28.025Z,100392.80
2019-06-08T14:14:02.027Z,100409.55
2019-06-08T14:16:35.504Z,100390.70
2019-06-08T14:19:08.568Z,100394.55
2019-06-08T14:21:41.921Z,100393.33
2019-06-08T14:24:22.823Z,100401.66
2019-06-08T14:27:08.418Z,100396.17
2019-06-08T14:29:41.742Z,100390.88
2019-06-08T14:32:14.206Z,100389.00
2019-06-08T14:34:50.195Z,100383.41
2019-06-08T14:37:22.909Z,100392.89
2019-06-08T14:40:08.199Z,100402.97
2019-06-08T14:42:42.578Z,100400.41
2019-06-08T14:45:18.138Z,100385.08
2019-06-08T14:47:51.615Z,100371.80
2019-06-08T14:50:29.259Z,100375.23
2019-06-08T14:53:04.149Z,100377.20
2019-06-08T14:55:49.962Z,100374.14
2019-06-08T14:58:34.594Z,100375.94
2019-06-08T15:01:23.933Z,100394.64
2019-06-08T15:04:08.840Z,100539.61
2019-06-08T15:06:48.662Z,100483.94
2019-06-08T15:09:21.422Z,100451.73
2019-06-08T15:11:54.460Z,100452.16
2019-06-08T15:14:29.303Z,100433.94
2019-06-08T15:17:05.488Z,100440.42
2019-06-08T15:19:37.728Z,100447.05
2019-06-08T15:22:11.893Z,100443.83
2019-06-08T15:24:44.995Z,100447.89
2019-06-08T15:27:20.885Z,100442.95
2019-06-08T15:29:53.862Z,100438.86
2019-06-08T15:32:28.272Z,100434.97
2019-06-08T15:35:08.291Z,100427.25
2019-06-08T15:37:44.572Z,100431.91
2019-06-08T15:40:19.923Z,100450.69
2019-06-08T15:42:52.224Z,100423.39
2019-06-08T15:45:24.674Z,100428.58
2019-06-08T15:47:58.648Z,100438.50
2019-06-08T15:50:32.624Z,100434.70
2019-06-08T15:53:08.332Z,100443.83
2019-06-08T15:55:41.836Z,100434.82
2019-06-08T15:58:14.159Z,100439.70
2019-06-08T16:00:46.641Z,100438.77
2019-06-08T16:03:34.280Z,100444.67
2019-06-08T16:06:08.413Z,100439.27
2019-06-08T16:08:42.154Z,100443.07
2019-06-08T16:11:41.439Z,100441.47
2019-06-08T16:14:13.798Z,100458.19
2019-06-08T16:16:46.757Z,100446.64
2019-06-08T16:19:22.028Z,100443.56
2019-06-08T16:21:57.131Z,100462.80
2019-06-08T16:24:31.852Z,100457.33
2019-06-08T16:27:08.721Z,100467.51
2019-06-08T16:29:43.223Z,100459.44
2019-06-08T16:32:15.506Z,100464.45
2019-06-08T16:34:48.012Z,100472.97
2019-06-08T16:37:23.948Z,100460.02
2019-06-08T16:40:04.786Z,100469.49
2019-06-08T16:42:41.623Z,100477.40
2019-06-08T16:45:17.337Z,100482.97
2019-06-08T16:47:50.767Z,100505.28
2019-06-08T16:50:28.079Z,100500.55
2019-06-08T16:53:04.388Z,100490.94
2019-06-08T16:55:40.518Z,100483.97
2019-06-08T16:58:20.734Z,100505.80
2019-06-08T17:00:55.256Z,100520.67
2019-06-08T17:03:43.989Z,100532.84
2019-06-08T17:06:17.956Z,100528.91
2019-06-08T17:08:51.691Z,100530.00
2019-06-08T17:11:25.202Z,100525.09
2019-06-08T17:13:59.586Z,100531.40
2019-06-08T17:16:46.676Z,100540.12
2019-06-08T17:19:57.090Z,100548.69
2019-06-08T17:22:34.496Z,100550.34
2019-06-08T17:25:08.817Z,100556.59
2019-06-08T17:27:42.262Z,100557.35
2019-06-08T17:30:17.353Z,100551.55
2019-06-08T17:32:50.580Z,100555.52
2019-06-08T17:35:24.113Z,100564.78
2019-06-08T17:37:56.568Z,100559.65
2019-06-08T17:40:34.308Z,100567.22
2019-06-08T17:43:06.715Z,100559.86
2019-06-08T17:45:41.112Z,100561.69
2019-06-08T17:48:17.314Z,100564.18
2019-06-08T17:50:57.887Z,100562.48
2019-06-08T17:53:30.361Z,100565.41
2019-06-08T17:56:03.682Z,100569.42
2019-06-08T17:58:39.254Z,100566.63
2019-06-08T18:01:17.526Z,100569.58
2019-06-08T18:03:57.487Z,100561.19
2019-06-08T18:06:34.243Z,100563.22
2019-06-08T18:09:07.846Z,100561.06
2019-06-08T18:11:44.974Z,100561.02
2019-06-08T18:14:23.639Z,100561.48
2019-06-08T18:16:57.458Z,100562.91
2019-06-08T18:19:32.374Z,100559.98
2019-06-08T18:22:15.116Z,100566.65
2019-06-08T18:24:49.564Z,100561.06
2019-06-08T18:27:27.841Z,100562.60
2019-06-08T18:30:08.313Z,100564.27
2019-06-08T18:32:50.491Z,100559.84
2019-06-08T18:35:27.752Z,100564.02
2019-06-08T18:38:00.230Z,100575.31
2019-06-08T18:40:37.596Z,100570.91
2019-06-08T18:43:16.955Z,100576.00
2019-06-08T18:45:51.902Z,100581.82
2019-06-08T18:48:29.324Z,100579.64
2019-06-08T18:51:04.033Z,100579.33
2019-06-08T18:53:54.201Z,100591.27
2019-06-08T18:56:45.084Z,100585.39
2019-06-08T18:59:21.003Z,100583.69
2019-06-08T19:01:53.270Z,100581.72
2019-06-08T19:04:27.624Z,100588.95
2019-06-08T19:07:03.308Z,100603.70
2019-06-08T19:09:40.729Z,100610.20
2019-06-08T19:12:17.202Z,100625.53
2019-06-08T19:14:54.930Z,100621.03
2019-06-08T19:17:39.784Z,100624.09
2019-06-08T19:20:18.095Z,100629.28
2019-06-08T19:22:54.194Z,100632.45
2019-06-08T19:25:29.407Z,100629.72
2019-06-08T19:28:02.409Z,100628.45
2019-06-08T19:30:41.680Z,100641.27
2019-06-08T19:33:17.939Z,100647.98
2019-06-08T19:35:54.869Z,100649.21
2019-06-08T19:38:28.730Z,100655.03
2019-06-08T19:41:02.497Z,100661.82
2019-06-08T19:43:35.029Z,100669.95
2019-06-08T19:46:10.441Z,100671.98
2019-06-08T19:48:53.200Z,100671.73
2019-06-08T19:51:30.724Z,100671.53
2019-06-08T19:54:06.985Z,100670.34
2019-06-08T19:56:41.913Z,100664.24
2019-06-08T19:59:18.675Z,100667.10
2019-06-08T20:01:56.124Z,100670.45
2019-06-08T20:04:28.759Z,100671.45
2019-06-08T20:07:02.055Z,100675.99
2019-06-08T20:09:37.619Z,100672.73
2019-06-08T20:12:10.207Z,100672.28
2019-06-08T20:14:43.715Z,100673.88
2019-06-08T20:17:19.414Z,100682.00
2019-06-08T20:19:53.437Z,100684.64
2019-06-08T20:22:27.783Z,100688.66
2019-06-08T20:25:10.676Z,100689.84
2019-06-08T20:27:49.874Z,100696.80
2019-06-08T20:30:31.429Z,100698.83
2019-06-08T20:33:08.224Z,100704.08
2019-06-08T20:35:43.542Z,100698.59
2019-06-08T20:38:25.855Z,100702.42
2019-06-08T20:41:12.445Z,100707.39
2019-06-08T20:43:52.127Z,100705.95
2019-06-08T20:46:28.592Z,100705.89
2019-06-08T20:49:02.143Z,100714.87
2019-06-08T20:51:38.025Z,100716.66
2019-06-08T20:54:11.272Z,100718.53
2019-06-08T20:56:47.924Z,100719.75
2019-06-08T20:59:29.841Z,100722.20
2019-06-08T21:02:08.400Z,100715.33
2019-06-08T21:04:41.007Z,100713.03
2019-06-08T21:07:14.652Z,100717.14
2019-06-08T21:09:50.645Z,100720.16
2019-06-08T21:12:25.086Z,100718.72
2019-06-08T21:14:57.419Z,100720.64
2019-06-08T21:17:29.744Z,100721.58
2019-06-08T21:20:03.792Z,100719.60
2019-06-08T21:22:36.769Z,100717.66
2019-06-08T21:25:09.121Z,100717.12
2019-06-08T21:27:43.418Z,100719.34
2019-06-08T21:30:24.538Z,100721.75
2019-06-08T21:33:00.594Z,100719.91
2019-06-08T21:35:35.197Z,100720.32
2019-06-08T21:38:22.662Z,100721.89
2019-06-08T21:41:02.107Z,100727.66
2019-06-08T21:43:37.429Z,100730.47
2019-06-08T21:46:11.447Z,100728.66
2019-06-08T21:48:44.294Z,100735.16
2019-06-08T21:51:17.617Z,100738.81
2019-06-08T21:53:54.223Z,100735.63
2019-06-08T21:56:27.669Z,100733.08
2019-06-08T21:59:01.600Z,100742.02
2019-06-08T22:01:37.436Z,100737.50
2019-06-08T22:04:18.606Z,100737.70
2019-06-08T22:06:54.101Z,100745.03
2019-06-08T22:09:31.330Z,100746.20
2019-06-08T22:12:07.189Z,100752.71
2019-06-08T22:14:40.724Z,100745.61
2019-06-08T22:17:19.511Z,100747.38
2019-06-08T22:19:53.109Z,100745.80
2019-06-08T22:22:26.522Z,100748.59
2019-06-08T22:25:03.680Z,100739.41
2019-06-08T22:27:38.147Z,100737.50
2019-06-08T22:30:32.456Z,100742.13
2019-06-08T22:33:12.475Z,100742.99
2019-06-08T22:35:47.802Z,100735.05
2019-06-08T22:38:20.974Z,100740.23
2019-06-08T22:40:57.349Z,100736.25
2019-06-08T22:43:33.006Z,100729.72
2019-06-08T22:46:08.246Z,100738.56
2019-06-08T22:48:40.964Z,100739.09
2019-06-08T22:51:18.212Z,100737.22
2019-06-08T22:53:51.202Z,100739.72
2019-06-08T22:56:24.221Z,100742.37
2019-06-08T22:59:00.543Z,100742.50
2019-06-08T23:01:38.386Z,100740.05
2019-06-08T23:04:13.767Z,100748.38
2019-06-08T23:06:48.288Z,100748.91
2019-06-08T23:09:20.602Z,100747.09
2019-06-08T23:11:52.852Z,100752.05
2019-06-08T23:14:25.156Z,100753.69
2019-06-08T23:16:59.591Z,100753.20
2019-06-08T23:19:33.441Z,100758.94
2019-06-08T23:22:12.622Z,100764.36
2019-06-08T23:24:53.920Z,100760.59
2019-06-08T23:27:27.968Z,100768.89
2019-06-08T23:30:06.073Z,100763.95
2019-06-08T23:32:44.869Z,100765.44
2019-06-08T23:35:18.201Z,100767.09
2019-06-08T23:37:50.754Z,100762.59
2019-06-08T23:40:23.017Z,100764.89
2019-06-08T23:42:55.248Z,100757.09
2019-06-08T23:45:27.540Z,100760.09
2019-06-08T23:48:01.048Z,100758.59
2019-06-08T23:50:33.832Z,100760.18
2019-06-08T23:53:09.181Z,100759.63
2019-06-08T23:55:44.110Z,100758.71
2019-06-08T23:58:17.462Z,100761.48
